sensor_id;sensor_type;location;lat;lon;timestamp;pressure;altitude;pressure_sealevel;temperature;humidity
75460;BME280;64039;53.060;9.342;2023-12-07T00:00:33;101357.72;;;0.45;100.00
75460;BME280;64039;53.060;9.342;2023-12-07T00:02:58;101360.59;;;0.50;100.00
75460;BME280;64039;53.060;9.342;2023-12-07T00:05:25;101362.81;;;0.57;100.00
75460;BME280;64039;53.060;9.342;2023-12-07T00:07:50;101359.56;;;0.60;100.00
75460;BME280;64039;53.060;9.342;2023-12-07T00:10:16;101360.25;;;0.57;100.00
75460;BME280;64039;53.060;9.342;2023-12-07T00:12:41;101361.59;;;0.64;100.00
75460;BME280;64039;53.060;9.342;2023-12-07T00:15:07;101369.50;;;0.67;100.00
75460;BME280;64039;53.060;9.342;2023-12-07T00:17:32;101364.03;;;0.62;100.00
75460;BME280;64039;53.060;9.342;2023-12-07T00:19:58;101370.06;;;0.51;100.00
75460;BME280;64039;53.060;9.342;2023-12-07T00:22:23;101379.09;;;0.58;100.00
75460;BME280;64039;53.060;9.342;2023-12-07T00:24:49;101375.72;;;0.59;100.00
75460;BME280;64039;53.060;9.342;2023-12-07T00:27:15;101376.75;;;0.49;100.00
75460;BME280;64039;53.060;9.342;2023-12-07T00:29:40;101373.50;;;0.52;100.00
75460;BME280;64039;53.060;9.342;2023-12-07T00:32:06;101369.38;;;0.66;100.00
75460;BME280;64039;53.060;9.342;2023-12-07T00:34:31;101377.31;;;0.57;100.00
75460;BME280;64039;53.060;9.342;2023-12-07T00:36:57;101375.25;;;0.65;100.00
75460;BME280;64039;53.060;9.342;2023-12-07T00:39:22;101376.19;;;0.53;100.00
75460;BME280;64039;53.060;9.342;2023-12-07T00:41:47;101368.72;;;0.56;100.00
75460;BME280;64039;53.060;9.342;2023-12-07T00:44:16;101379.31;;;0.49;100.00
75460;BME280;64039;53.060;9.342;2023-12-07T00:46:41;101381.97;;;0.62;100.00
75460;BME280;64039;53.060;9.342;2023-12-07T00:49:07;101384.28;;;0.71;100.00
75460;BME280;64039;53.060;9.342;2023-12-07T00:51:32;101385.72;;;0.80;100.00
75460;BME280;64039;53.060;9.342;2023-12-07T00:53:58;101388.63;;;0.72;100.00
75460;BME280;64039;53.060;9.342;2023-12-07T00:56:24;101383.59;;;0.74;100.00
75460;BME280;64039;53.060;9.342;2023-12-07T00:58:49;101393.31;;;0.78;100.00
75460;BME280;64039;53.060;9.342;2023-12-07T01:01:15;101385.72;;;0.80;100.00
75460;BME280;64039;53.060;9.342;2023-12-07T01:03:40;101390.75;;;0.78;100.00
75460;BME280;64039;53.060;9.342;2023-12-07T01:06:06;101395.41;;;0.72;100.00
75460;BME280;64039;53.060;9.342;2023-12-07T01:08:32;101403.09;;;0.72;100.00
75460;BME280;64039;53.060;9.342;2023-12-07T01:10:57;101397.41;;;0.76;100.00
75460;BME280;64039;53.060;9.342;2023-12-07T01:13:23;101405.78;;;0.73;100.00
75460;BME280;64039;53.060;9.342;2023-12-07T01:15:49;101412.22;;;0.80;100.00
75460;BME280;64039;53.060;9.342;2023-12-07T01:18:15;101408.31;;;0.85;100.00
75460;BME280;64039;53.060;9.342;2023-12-07T01:20:40;101422.13;;;0.87;100.00
75460;BME280;64039;53.060;9.342;2023-12-07T01:23:07;101417.25;;;0.78;100.00
75460;BME280;64039;53.060;9.342;2023-12-07T01:25:34;101423.50;;;0.70;100.00
75460;BME280;64039;53.060;9.342;2023-12-07T01:27:59;101422.63;;;0.70;100.00
75460;BME280;64039;53.060;9.342;2023-12-07T01:30:25;101426.16;;;0.72;100.00
75460;BME280;64039;53.060;9.342;2023-12-07T01:32:50;101429.03;;;0.76;100.00
75460;BME280;64039;53.060;9.342;2023-12-07T01:35:16;101429.03;;;0.76;100.00
75460;BME280;64039;53.060;9.342;2023-12-07T01:37:41;101436.09;;;0.79;100.00
75460;BME280;64039;53.060;9.342;2023-12-07T01:40:07;101428.63;;;0.70;100.00
75460;BME280;64039;53.060;9.342;2023-12-07T01:42:38;101431.06;;;0.81;100.00
75460;BME280;64039;53.060;9.342;2023-12-07T01:45:05;101437.53;;;0.75;100.00
75460;BME280;64039;53.060;9.342;2023-12-07T01:47:31;101437.06;;;0.81;100.00
75460;BME280;64039;53.060;9.342;2023-12-07T01:49:57;101436.50;;;0.85;100.00
75460;BME280;64039;53.060;9.342;2023-12-07T01:52:25;101434.03;;;0.87;100.00
75460;BME280;64039;53.060;9.342;2023-12-07T01:54:52;101443.16;;;0.95;100.00
75460;BME280;64039;53.060;9.342;2023-12-07T01:57:18;101436.09;;;0.79;100.00
75460;BME280;64039;53.060;9.342;2023-12-07T01:59:44;101433.16;;;0.86;100.00
75460;BME280;64039;53.060;9.342;2023-12-07T02:02:09;101430.94;;;0.91;100.00
75460;BME280;64039;53.060;9.342;2023-12-07T02:04:35;101436.06;;;0.91;100.00
75460;BME280;64039;53.060;9.342;2023-12-07T02:07:01;101444.53;;;0.90;100.00
75460;BME280;64039;53.060;9.342;2023-12-07T02:09:28;101447.63;;;0.86;100.00
75460;BME280;64039;53.060;9.342;2023-12-07T02:11:53;101450.75;;;0.93;100.00
75460;BME280;64039;53.060;9.342;2023-12-07T02:14:19;101452.31;;;0.91;100.00
75460;BME280;64039;53.060;9.342;2023-12-07T02:17:08;101453.09;;;0.90;100.00
75460;BME280;64039;53.060;9.342;2023-12-07T02:20:01;101445.94;;;0.98;100.00
75460;BME280;64039;53.060;9.342;2023-12-07T02:22:42;101443.50;;;0.88;100.00
75460;BME280;64039;53.060;9.342;2023-12-07T02:25:13;101453.88;;;0.89;100.00
75460;BME280;64039;53.060;9.342;2023-12-07T02:27:43;101453.78;;;0.88;100.00
75460;BME280;64039;53.060;9.342;2023-12-07T02:30:11;101448.09;;;0.92;100.00
75460;BME280;64039;53.060;9.342;2023-12-07T02:32:41;101450.75;;;0.93;100.00
75460;BME280;64039;53.060;9.342;2023-12-07T02:35:08;101454.00;;;0.91;100.00
75460;BME280;64039;53.060;9.342;2023-12-07T02:37:50;101454.31;;;0.96;100.00
75460;BME280;64039;53.060;9.342;2023-12-07T02:40:24;101447.75;;;0.99;100.00
75460;BME280;64039;53.060;9.342;2023-12-07T02:42:51;101450.66;;;0.92;100.00
75460;BME280;64039;53.060;9.342;2023-12-07T02:45:17;101454.34;;;0.84;100.00
75460;BME280;64039;53.060;9.342;2023-12-07T02:47:43;101460.91;;;0.92;100.00
75460;BME280;64039;53.060;9.342;2023-12-07T02:50:11;101451.19;;;1.00;100.00
75460;BME280;64039;53.060;9.342;2023-12-07T02:52:38;101453.66;;;0.86;100.00
75460;BME280;64039;53.060;9.342;2023-12-07T02:55:04;101457.22;;;1.00;100.00
75460;BME280;64039;53.060;9.342;2023-12-07T02:57:30;101455.19;;;0.96;100.00
75460;BME280;64039;53.060;9.342;2023-12-07T02:59:56;101449.75;;;0.91;100.00
75460;BME280;64039;53.060;9.342;2023-12-07T03:02:21;101445.81;;;0.97;100.00
75460;BME280;64039;53.060;9.342;2023-12-07T03:04:47;101455.56;;;0.89;100.00
75460;BME280;64039;53.060;9.342;2023-12-07T03:07:13;101454.53;;;0.99;100.00
75460;BME280;64039;53.060;9.342;2023-12-07T03:09:38;101461.75;;;1.04;100.00
75460;BME280;64039;53.060;9.342;2023-12-07T03:12:04;101455.09;;;0.94;100.00
75460;BME280;64039;53.060;9.342;2023-12-07T03:14:30;101464.56;;;0.96;100.00
75460;BME280;64039;53.060;9.342;2023-12-07T03:16:55;101466.22;;;0.95;100.00
75460;BME280;64039;53.060;9.342;2023-12-07T03:19:20;101466.66;;;1.01;100.00
75460;BME280;64039;53.060;9.342;2023-12-07T03:21:46;101463.47;;;0.92;100.00
75460;BME280;64039;53.060;9.342;2023-12-07T03:24:11;101467.91;;;0.94;100.00
75460;BME280;64039;53.060;9.342;2023-12-07T03:26:37;101467.59;;;0.90;100.00
75460;BME280;64039;53.060;9.342;2023-12-07T03:29:03;101464.91;;;0.88;100.00
75460;BME280;64039;53.060;9.342;2023-12-07T03:31:29;101463.94;;;0.86;100.00
75460;BME280;64039;53.060;9.342;2023-12-07T03:33:55;101474.28;;;0.88;100.00
75460;BME280;64039;53.060;9.342;2023-12-07T03:36:21;101473.63;;;0.78;100.00
75460;BME280;64039;53.060;9.342;2023-12-07T03:38:47;101476.84;;;0.88;100.00
75460;BME280;64039;53.060;9.342;2023-12-07T03:41:13;101479.16;;;0.85;100.00
75460;BME280;64039;53.060;9.342;2023-12-07T03:43:38;101475.72;;;0.84;100.00
75460;BME280;64039;53.060;9.342;2023-12-07T03:46:05;101484.53;;;0.76;100.00
75460;BME280;64039;53.060;9.342;2023-12-07T03:48:30;101482.75;;;0.75;100.00
75460;BME280;64039;53.060;9.342;2023-12-07T03:50:56;101483.97;;;0.80;100.00
75460;BME280;64039;53.060;9.342;2023-12-07T03:53:21;101491.88;;;0.83;100.00
75460;BME280;64039;53.060;9.342;2023-12-07T03:55:46;101489.97;;;0.92;100.00
75460;BME280;64039;53.060;9.342;2023-12-07T03:58:12;101483.84;;;0.90;100.00
75460;BME280;64039;53.060;9.342;2023-12-07T04:00:39;101480.28;;;0.88;100.00
75460;BME280;64039;53.060;9.342;2023-12-07T04:03:04;101477.97;;;0.80;100.00
75460;BME280;64039;53.060;9.342;2023-12-07T04:05:31;101481.72;;;0.85;100.00
75460;BME280;64039;53.060;9.342;2023-12-07T04:07:57;101480.84;;;0.84;100.00
75460;BME280;64039;53.060;9.342;2023-12-07T04:10:22;101484.44;;;0.86;100.00
75460;BME280;64039;53.060;9.342;2023-12-07T04:12:48;101483.53;;;0.86;100.00
75460;BME280;64039;53.060;9.342;2023-12-07T04:15:13;101488.22;;;0.80;100.00
75460;BME280;64039;53.060;9.342;2023-12-07T04:17:39;101488.78;;;0.87;100.00
75460;BME280;64039;53.060;9.342;2023-12-07T04:20:04;101489.66;;;0.88;100.00
75460;BME280;64039;53.060;9.342;2023-12-07T04:22:31;101497.44;;;0.89;100.00
75460;BME280;64039;53.060;9.342;2023-12-07T04:24:56;101502.38;;;0.86;100.00
75460;BME280;64039;53.060;9.342;2023-12-07T04:27:22;101501.69;;;0.89;100.00
75460;BME280;64039;53.060;9.342;2023-12-07T04:29:47;101501.91;;;0.80;100.00
75460;BME280;64039;53.060;9.342;2023-12-07T04:32:13;101501.59;;;0.87;100.00
75460;BME280;64039;53.060;9.342;2023-12-07T04:34:38;101504.03;;;0.74;100.00
75460;BME280;64039;53.060;9.342;2023-12-07T04:37:03;101508.28;;;0.73;100.00
75460;BME280;64039;53.060;9.342;2023-12-07T04:39:29;101499.91;;;0.76;100.00
75460;BME280;64039;53.060;9.342;2023-12-07T04:41:55;101503.34;;;0.76;100.00
75460;BME280;64039;53.060;9.342;2023-12-07T04:44:23;101499.34;;;0.92;100.00
75460;BME280;64039;53.060;9.342;2023-12-07T04:46:51;101501.66;;;1.01;100.00
75460;BME280;64039;53.060;9.342;2023-12-07T04:49:16;101503.56;;;0.91;100.00
75460;BME280;64039;53.060;9.342;2023-12-07T04:51:42;101504.25;;;0.89;100.00
75460;BME280;64039;53.060;9.342;2023-12-07T04:54:12;101506.72;;;0.87;100.00
75460;BME280;64039;53.060;9.342;2023-12-07T04:56:37;101501.34;;;0.84;100.00
75460;BME280;64039;53.060;9.342;2023-12-07T04:59:02;101500.25;;;0.81;100.00
75460;BME280;64039;53.060;9.342;2023-12-07T05:01:28;101501.59;;;0.87;100.00
75460;BME280;64039;53.060;9.342;2023-12-07T05:03:53;101506.47;;;0.84;100.00
75460;BME280;64039;53.060;9.342;2023-12-07T05:06:19;101502.22;;;0.85;100.00
75460;BME280;64039;53.060;9.342;2023-12-07T05:08:44;101502.91;;;0.82;100.00
75460;BME280;64039;53.060;9.342;2023-12-07T05:11:09;101499.03;;;0.75;100.00
75460;BME280;64039;53.060;9.342;2023-12-07T05:13:35;101505.91;;;0.76;100.00
75460;BME280;64039;53.060;9.342;2023-12-07T05:16:01;101506.47;;;0.96;100.00
75460;BME280;64039;53.060;9.342;2023-12-07T05:18:27;101506.38;;;0.83;100.00
75460;BME280;64039;53.060;9.342;2023-12-07T05:20:52;101517.97;;;0.77;100.00
75460;BME280;64039;53.060;9.342;2023-12-07T05:23:18;101506.59;;;0.74;100.00
75460;BME280;64039;53.060;9.342;2023-12-07T05:25:43;101511.38;;;0.81;100.00
75460;BME280;64039;53.060;9.342;2023-12-07T05:28:09;101509.41;;;0.77;100.00
75460;BME280;64039;53.060;9.342;2023-12-07T05:30:35;101509.50;;;0.78;100.00
75460;BME280;64039;53.060;9.342;2023-12-07T05:33:01;101504.47;;;0.68;100.00
75460;BME280;64039;53.060;9.342;2023-12-07T05:35:27;101505.72;;;0.73;100.00
75460;BME280;64039;53.060;9.342;2023-12-07T05:37:52;101509.84;;;0.71;100.00
75460;BME280;64039;53.060;9.342;2023-12-07T05:40:18;101515.19;;;0.74;100.00
75460;BME280;64039;53.060;9.342;2023-12-07T05:42:49;101518.88;;;0.66;100.00
75460;BME280;64039;53.060;9.342;2023-12-07T05:45:14;101509.41;;;0.77;100.00
75460;BME280;64039;53.060;9.342;2023-12-07T05:47:40;101512.84;;;0.66;100.00
75460;BME280;64039;53.060;9.342;2023-12-07T05:50:06;101510.06;;;0.74;100.00
75460;BME280;64039;53.060;9.342;2023-12-07T05:52:31;101508.94;;;0.83;100.00
75460;BME280;64039;53.060;9.342;2023-12-07T05:54:57;101518.19;;;0.81;100.00
75460;BME280;64039;53.060;9.342;2023-12-07T05:57:22;101513.94;;;0.81;100.00
75460;BME280;64039;53.060;9.342;2023-12-07T05:59:48;101516.66;;;0.71;100.00
75460;BME280;64039;53.060;9.342;2023-12-07T06:02:13;101527.44;;;0.67;100.00
75460;BME280;64039;53.060;9.342;2023-12-07T06:04:39;101516.63;;;0.59;100.00
75460;BME280;64039;53.060;9.342;2023-12-07T06:07:04;101525.66;;;0.66;100.00
75460;BME280;64039;53.060;9.342;2023-12-07T06:09:30;101514.63;;;0.67;100.00
75460;BME280;64039;53.060;9.342;2023-12-07T06:11:55;101531.22;;;0.72;100.00
75460;BME280;64039;53.060;9.342;2023-12-07T06:14:21;101528.34;;;0.67;100.00
75460;BME280;64039;53.060;9.342;2023-12-07T06:16:48;101528.34;;;0.67;100.00
75460;BME280;64039;53.060;9.342;2023-12-07T06:19:14;101529.13;;;0.66;100.00
75460;BME280;64039;53.060;9.342;2023-12-07T06:21:39;101533.56;;;0.69;100.00
75460;BME280;64039;53.060;9.342;2023-12-07T06:24:04;101532.13;;;0.60;100.00
75460;BME280;64039;53.060;9.342;2023-12-07T06:26:30;101527.78;;;0.59;100.00
75460;BME280;64039;53.060;9.342;2023-12-07T06:28:55;101534.88;;;0.63;100.00
75460;BME280;64039;53.060;9.342;2023-12-07T06:31:21;101542.81;;;0.67;100.00
75460;BME280;64039;53.060;9.342;2023-12-07T06:33:53;101543.59;;;0.66;100.00
75460;BME280;64039;53.060;9.342;2023-12-07T06:36:23;101548.16;;;0.70;100.00
75460;BME280;64039;53.060;9.342;2023-12-07T06:38:48;101553.16;;;0.68;100.00
75460;BME280;64039;53.060;9.342;2023-12-07T06:41:14;101554.28;;;0.72;100.00
75460;BME280;64039;53.060;9.342;2023-12-07T06:43:41;101560.97;;;0.82;100.00
75460;BME280;64039;53.060;9.342;2023-12-07T06:46:06;101554.50;;;0.63;100.00
75460;BME280;64039;53.060;9.342;2023-12-07T06:48:32;101556.41;;;0.77;100.00
75460;BME280;64039;53.060;9.342;2023-12-07T06:50:57;101557.75;;;0.72;100.00
75460;BME280;64039;53.060;9.342;2023-12-07T06:53:23;101561.41;;;0.64;100.00
75460;BME280;64039;53.060;9.342;2023-12-07T06:55:48;101557.84;;;0.62;100.00
75460;BME280;64039;53.060;9.342;2023-12-07T06:58:14;101559.09;;;0.67;100.00
75460;BME280;64039;53.060;9.342;2023-12-07T07:00:39;101555.97;;;0.71;100.00
75460;BME280;64039;53.060;9.342;2023-12-07T07:03:05;101569.44;;;0.69;100.00
75460;BME280;64039;53.060;9.342;2023-12-07T07:05:31;101569.78;;;0.85;100.00
75460;BME280;64039;53.060;9.342;2023-12-07T07:07:57;101568.56;;;0.92;100.00
75460;BME280;64039;53.060;9.342;2023-12-07T07:10:22;101568.53;;;0.80;100.00
75460;BME280;64039;53.060;9.342;2023-12-07T07:12:48;101573.78;;;0.82;100.00
75460;BME280;64039;53.060;9.342;2023-12-07T07:15:13;101569.00;;;0.74;100.00
75460;BME280;64039;53.060;9.342;2023-12-07T07:17:39;101571.00;;;0.90;100.00
75460;BME280;64039;53.060;9.342;2023-12-07T07:20:04;101565.44;;;0.84;100.00
75460;BME280;64039;53.060;9.342;2023-12-07T07:22:30;101566.97;;;0.82;100.00
75460;BME280;64039;53.060;9.342;2023-12-07T07:24:56;101565.09;;;0.80;100.00
75460;BME280;64039;53.060;9.342;2023-12-07T07:27:21;101566.66;;;0.77;100.00
75460;BME280;64039;53.060;9.342;2023-12-07T07:29:46;101568.09;;;0.74;100.00
75460;BME280;64039;53.060;9.342;2023-12-07T07:32:12;101563.22;;;0.77;100.00
75460;BME280;64039;53.060;9.342;2023-12-07T07:34:37;101563.53;;;0.82;100.00
75460;BME280;64039;53.060;9.342;2023-12-07T07:37:03;101566.66;;;0.77;100.00
75460;BME280;64039;53.060;9.342;2023-12-07T07:39:28;101572.53;;;0.88;100.00
75460;BME280;64039;53.060;9.342;2023-12-07T07:41:54;101566.97;;;0.82;100.00
75460;BME280;64039;53.060;9.342;2023-12-07T07:44:19;101571.00;;;0.78;100.00
75460;BME280;64039;53.060;9.342;2023-12-07T07:46:45;101571.91;;;0.79;100.00
75460;BME280;64039;53.060;9.342;2023-12-07T07:49:11;101571.13;;;0.92;100.00
75460;BME280;64039;53.060;9.342;2023-12-07T07:51:37;101574.66;;;0.94;100.00
75460;BME280;64039;53.060;9.342;2023-12-07T07:54:03;101577.81;;;0.90;100.00
75460;BME280;64039;53.060;9.342;2023-12-07T07:56:29;101582.03;;;0.77;100.00
75460;BME280;64039;53.060;9.342;2023-12-07T07:58:54;101580.72;;;0.83;100.00
75460;BME280;64039;53.060;9.342;2023-12-07T08:01:20;101583.91;;;0.80;100.00
75460;BME280;64039;53.060;9.342;2023-12-07T08:03:45;101587.16;;;0.77;100.00
75460;BME280;64039;53.060;9.342;2023-12-07T08:06:10;101583.59;;;0.75;100.00
75460;BME280;64039;53.060;9.342;2023-12-07T08:08:36;101593.53;;;0.71;100.00
75460;BME280;64039;53.060;9.342;2023-12-07T08:11:01;101586.72;;;0.95;100.00
75460;BME280;64039;53.060;9.342;2023-12-07T08:13:27;101587.16;;;0.77;100.00
75460;BME280;64039;53.060;9.342;2023-12-07T08:15:53;101585.84;;;0.83;100.00
75460;BME280;64039;53.060;9.342;2023-12-07T08:18:18;101587.63;;;0.96;100.00
75460;BME280;64039;53.060;9.342;2023-12-07T08:20:44;101587.94;;;0.88;100.00
75460;BME280;64039;53.060;9.342;2023-12-07T08:23:09;101584.38;;;0.86;100.00
75460;BME280;64039;53.060;9.342;2023-12-07T08:25:38;101587.28;;;0.91;100.00
75460;BME280;64039;53.060;9.342;2023-12-07T08:28:03;101589.63;;;0.88;100.00
75460;BME280;64039;53.060;9.342;2023-12-07T08:30:29;101579.25;;;1.10;100.00
75460;BME280;64039;53.060;9.342;2023-12-07T08:32:54;101584.81;;;1.04;100.00
75460;BME280;64039;53.060;9.342;2023-12-07T08:35:20;101591.41;;;1.01;100.00
75460;BME280;64039;53.060;9.342;2023-12-07T08:37:45;101594.28;;;1.05;100.00
75460;BME280;64039;53.060;9.342;2023-12-07T08:40:10;101591.38;;;1.13;100.00
75460;BME280;64039;53.060;9.342;2023-12-07T08:42:36;101593.19;;;1.02;100.00
75460;BME280;64039;53.060;9.342;2023-12-07T08:45:02;101587.94;;;1.12;100.00
75460;BME280;64039;53.060;9.342;2023-12-07T08:47:28;101590.94;;;1.18;100.00
75460;BME280;64039;53.060;9.342;2023-12-07T08:49:55;101595.94;;;1.29;100.00
75460;BME280;64039;53.060;9.342;2023-12-07T08:52:20;101589.59;;;1.23;100.00
75460;BME280;64039;53.060;9.342;2023-12-07T08:54:46;101584.59;;;1.25;100.00
75460;BME280;64039;53.060;9.342;2023-12-07T08:57:12;101594.25;;;1.29;100.00
75460;BME280;64039;53.060;9.342;2023-12-07T08:59:37;101597.94;;;1.33;100.00
75460;BME280;64039;53.060;9.342;2023-12-07T09:02:03;101600.84;;;1.25;100.00
75460;BME280;64039;53.060;9.342;2023-12-07T09:04:28;101596.72;;;1.28;100.00
75460;BME280;64039;53.060;9.342;2023-12-07T09:06:54;101601.50;;;1.35;100.00
75460;BME280;64039;53.060;9.342;2023-12-07T09:09:19;101609.63;;;1.41;100.00
75460;BME280;64039;53.060;9.342;2023-12-07T09:11:45;101610.97;;;1.48;100.00
75460;BME280;64039;53.060;9.342;2023-12-07T09:14:10;101611.19;;;1.51;100.00
75460;BME280;64039;53.060;9.342;2023-12-07T09:16:43;101615.88;;;1.45;100.00
75460;BME280;64039;53.060;9.342;2023-12-07T09:19:09;101612.19;;;1.41;100.00
75460;BME280;64039;53.060;9.342;2023-12-07T09:21:35;101611.06;;;1.49;100.00
75460;BME280;64039;53.060;9.342;2023-12-07T09:24:01;101608.50;;;1.49;100.00
75460;BME280;64039;53.060;9.342;2023-12-07T09:26:26;101615.84;;;1.56;100.00
75460;BME280;64039;53.060;9.342;2023-12-07T09:28:52;101629.31;;;1.66;100.00
75460;BME280;64039;53.060;9.342;2023-12-07T09:31:18;101631.91;;;1.66;100.00
75460;BME280;64039;53.060;9.342;2023-12-07T09:33:43;101620.88;;;1.55;100.00
75460;BME280;64039;53.060;9.342;2023-12-07T09:36:09;101624.78;;;1.62;100.00
75460;BME280;64039;53.060;9.342;2023-12-07T09:38:36;101635.47;;;1.68;100.00
75460;BME280;64039;53.060;9.342;2023-12-07T09:41:03;101627.34;;;1.62;100.00
75460;BME280;64039;53.060;9.342;2023-12-07T09:43:29;101628.69;;;1.56;100.00
75460;BME280;64039;53.060;9.342;2023-12-07T09:45:54;101627.91;;;1.57;100.00
75460;BME280;64039;53.060;9.342;2023-12-07T09:48:21;101624.66;;;1.60;100.00
75460;BME280;64039;53.060;9.342;2023-12-07T09:50:47;101619.41;;;1.59;100.00
75460;BME280;64039;53.060;9.342;2023-12-07T09:53:13;101624.91;;;1.51;100.00
75460;BME280;64039;53.060;9.342;2023-12-07T09:55:38;101618.41;;;1.56;100.00
75460;BME280;64039;53.060;9.342;2023-12-07T09:58:05;101620.09;;;1.56;100.00
75460;BME280;64039;53.060;9.342;2023-12-07T10:00:31;101621.84;;;1.69;100.00
75460;BME280;64039;53.060;9.342;2023-12-07T10:02:58;101619.28;;;1.69;100.00
75460;BME280;64039;53.060;9.342;2023-12-07T10:05:23;101622.81;;;1.83;100.00
75460;BME280;64039;53.060;9.342;2023-12-07T10:07:49;101629.75;;;1.84;100.00
75460;BME280;64039;53.060;9.342;2023-12-07T10:10:16;101621.03;;;1.82;100.00
75460;BME280;64039;53.060;9.342;2023-12-07T10:12:55;101619.25;;;1.81;100.00
75460;BME280;64039;53.060;9.342;2023-12-07T10:15:23;101630.75;;;1.74;100.00
75460;BME280;64039;53.060;9.342;2023-12-07T10:17:55;101631.03;;;1.91;100.00
75460;BME280;64039;53.060;9.342;2023-12-07T10:20:23;101626.53;;;1.75;100.00
75460;BME280;64039;53.060;9.342;2023-12-07T10:23:07;101621.81;;;1.81;100.00
75460;BME280;64039;53.060;9.342;2023-12-07T10:25:35;101620.59;;;1.87;100.00
75460;BME280;64039;53.060;9.342;2023-12-07T10:28:02;101617.47;;;1.80;100.00
75460;BME280;64039;53.060;9.342;2023-12-07T10:30:33;101620.78;;;1.91;100.00
75460;BME280;64039;53.060;9.342;2023-12-07T10:32:59;101617.41;;;1.92;100.00
75460;BME280;64039;53.060;9.342;2023-12-07T10:35:24;101620.00;;;1.92;100.00
75460;BME280;64039;53.060;9.342;2023-12-07T10:37:51;101623.16;;;1.87;100.00
75460;BME280;64039;53.060;9.342;2023-12-07T10:40:16;101617.78;;;1.84;100.00
75460;BME280;64039;53.060;9.342;2023-12-07T10:42:43;101617.06;;;1.99;100.00
75460;BME280;64039;53.060;9.342;2023-12-07T10:45:13;101612.69;;;1.98;100.00
75460;BME280;64039;53.060;9.342;2023-12-07T10:47:43;101610.81;;;1.95;100.00
75460;BME280;64039;53.060;9.342;2023-12-07T10:50:09;101616.19;;;1.98;100.00
75460;BME280;64039;53.060;9.342;2023-12-07T10:52:52;101611.88;;;2.11;100.00
75460;BME280;64039;53.060;9.342;2023-12-07T10:55:20;101616.13;;;2.10;100.00
75460;BME280;64039;53.060;9.342;2023-12-07T10:57:52;101604.06;;;2.09;100.00
75460;BME280;64039;53.060;9.342;2023-12-07T11:00:18;101606.53;;;2.08;100.00
75460;BME280;64039;53.060;9.342;2023-12-07T11:02:45;101603.91;;;2.19;100.00
75460;BME280;64039;53.060;9.342;2023-12-07T11:05:11;101599.03;;;2.11;100.00
75460;BME280;64039;53.060;9.342;2023-12-07T11:07:52;101598.69;;;2.18;100.00
75460;BME280;64039;53.060;9.342;2023-12-07T11:10:30;101596.78;;;2.15;100.00
75460;BME280;64039;53.060;9.342;2023-12-07T11:13:08;101597.16;;;2.08;100.00
75460;BME280;64039;53.060;9.342;2023-12-07T11:15:36;101601.59;;;2.11;100.00
75460;BME280;64039;53.060;9.342;2023-12-07T11:18:04;101598.97;;;2.23;100.00
75460;BME280;64039;53.060;9.342;2023-12-07T11:20:46;101595.22;;;2.17;100.00
75460;BME280;64039;53.060;9.342;2023-12-07T11:23:18;101591.84;;;2.18;100.00
75460;BME280;64039;53.060;9.342;2023-12-07T11:25:45;101589.50;;;2.22;100.00
75460;BME280;64039;53.060;9.342;2023-12-07T11:28:13;101594.72;;;2.23;100.00
75460;BME280;64039;53.060;9.342;2023-12-07T11:30:42;101584.47;;;2.23;100.00
75460;BME280;64039;53.060;9.342;2023-12-07T11:33:09;101587.41;;;2.16;100.00
75460;BME280;64039;53.060;9.342;2023-12-07T11:36:04;101578.22;;;2.19;100.00
75460;BME280;64039;53.060;9.342;2023-12-07T11:38:31;101577.13;;;2.16;100.00
75460;BME280;64039;53.060;9.342;2023-12-07T11:40:57;101582.38;;;2.31;100.00
75460;BME280;64039;53.060;9.342;2023-12-07T11:46:04;101566.69;;;2.26;100.00
75460;BME280;64039;53.060;9.342;2023-12-07T11:48:29;101557.28;;;2.27;100.00
75460;BME280;64039;53.060;9.342;2023-12-07T11:50:58;101565.03;;;2.40;100.00
75460;BME280;64039;53.060;9.342;2023-12-07T11:53:26;101555.03;;;2.45;100.00
75460;BME280;64039;53.060;9.342;2023-12-07T11:55:52;101561.41;;;2.50;100.00
75460;BME280;64039;53.060;9.342;2023-12-07T11:58:18;101564.72;;;2.35;100.00
75460;BME280;64039;53.060;9.342;2023-12-07T12:00:44;101564.63;;;2.34;100.00
75460;BME280;64039;53.060;9.342;2023-12-07T12:03:13;101557.31;;;2.40;100.00
75460;BME280;64039;53.060;9.342;2023-12-07T12:05:39;101559.25;;;2.31;100.00
75460;BME280;64039;53.060;9.342;2023-12-07T12:08:06;101557.00;;;2.35;100.00
75460;BME280;64039;53.060;9.342;2023-12-07T12:10:32;101565.72;;;2.38;100.00
75460;BME280;64039;53.060;9.342;2023-12-07T12:13:01;101559.53;;;2.47;100.00
75460;BME280;64039;53.060;9.342;2023-12-07T12:15:27;101555.47;;;2.51;100.00
75460;BME280;64039;53.060;9.342;2023-12-07T12:17:56;101550.63;;;2.56;100.00
75460;BME280;64039;53.060;9.342;2023-12-07T12:20:21;101551.00;;;2.48;100.00
75460;BME280;64039;53.060;9.342;2023-12-07T12:22:46;101546.56;;;2.46;100.00
75460;BME280;64039;53.060;9.342;2023-12-07T12:25:12;101547.03;;;2.40;100.00
75460;BME280;64039;53.060;9.342;2023-12-07T12:27:38;101547.34;;;2.45;100.00
75460;BME280;64039;53.060;9.342;2023-12-07T12:30:04;101544.91;;;2.60;100.00
75460;BME280;64039;53.060;9.342;2023-12-07T12:32:45;101546.69;;;2.61;100.00
75460;BME280;64039;53.060;9.342;2023-12-07T12:35:10;101542.72;;;2.66;100.00
75460;BME280;64039;53.060;9.342;2023-12-07T12:37:47;101543.09;;;2.59;100.00
75460;BME280;64039;53.060;9.342;2023-12-07T12:40:17;101540.84;;;2.50;100.00
75460;BME280;64039;53.060;9.342;2023-12-07T12:42:47;101537.88;;;2.57;100.00
75460;BME280;64039;53.060;9.342;2023-12-07T12:45:14;101539.38;;;2.54;100.00
75460;BME280;64039;53.060;9.342;2023-12-07T12:47:41;101534.31;;;2.55;100.00
75460;BME280;64039;53.060;9.342;2023-12-07T12:50:09;101530.44;;;2.48;100.00